createdAt,value
2022-10-03T00:00:00.093Z,1003.44
2022-10-03T00:05:00.111Z,1003.46
2022-10-03T00:10:00.079Z,1003.51
2022-10-03T00:15:00.072Z,1003.5
2022-10-03T00:20:00.116Z,1003.54
2022-10-03T00:25:00.143Z,1003.65
2022-10-03T00:30:00.086Z,1003.7
2022-10-03T00:35:00.085Z,1003.69
2022-10-03T00:40:00.091Z,1003.72
2022-10-03T00:45:00.107Z,1003.76
2022-10-03T00:50:00.083Z,1003.74
2022-10-03T00:55:00.081Z,1003.82
2022-10-03T01:00:00.140Z,1003.71
2022-10-03T01:05:00.127Z,1003.78
2022-10-03T01:10:00.099Z,1003.87
2022-10-03T01:15:00.098Z,1003.8
2022-10-03T01:20:00.097Z,1003.82
2022-10-03T01:25:00.103Z,1003.89
2022-10-03T01:30:00.123Z,1003.86
2022-10-03T01:35:00.093Z,1003.86
2022-10-03T01:40:00.096Z,1003.94
2022-10-03T01:45:00.117Z,1003.9
2022-10-03T01:50:00.129Z,1004.04
2022-10-03T01:55:00.075Z,1003.94
2022-10-03T02:00:00.084Z,1004.02
2022-10-03T02:05:00.102Z,1004.12
2022-10-03T02:10:00.098Z,1004.14
2022-10-03T02:15:00.103Z,1004.21
2022-10-03T02:20:00.089Z,1004.19
2022-10-03T02:25:00.130Z,1004.37
2022-10-03T02:30:00.090Z,1004.39
2022-10-03T02:35:00.082Z,1004.31
2022-10-03T02:40:00.079Z,1004.41
2022-10-03T02:45:00.115Z,1004.37
2022-10-03T02:50:00.092Z,1004.42
2022-10-03T02:55:00.106Z,1004.5
2022-10-03T03:00:00.102Z,1004.42
2022-10-03T03:05:00.109Z,1004.52
2022-10-03T03:10:00.109Z,1004.58
2022-10-03T03:15:00.096Z,1004.6
2022-10-03T03:20:00.127Z,1004.57
2022-10-03T03:25:00.102Z,1004.19
2022-10-03T03:30:00.108Z,1004.16
2022-10-03T03:35:00.086Z,1004.28
2022-10-03T03:40:00.111Z,1004.32
2022-10-03T03:45:00.119Z,1004.28
2022-10-03T03:50:00.094Z,1004.28
2022-10-03T03:55:00.095Z,1004.39
2022-10-03T04:00:00.141Z,1004.39
2022-10-03T04:05:00.116Z,1004.36
2022-10-03T04:10:00.108Z,1004.39
2022-10-03T04:15:00.103Z,1004.38
2022-10-03T04:20:00.115Z,1004.43
2022-10-03T04:25:00.186Z,1004.52
2022-10-03T04:30:00.082Z,1004.53
2022-10-03T04:35:00.077Z,1004.63
2022-10-03T04:40:00.110Z,1004.54
2022-10-03T04:45:00.097Z,1004.58
2022-10-03T04:50:00.090Z,1004.56
2022-10-03T04:55:00.118Z,1004.54
2022-10-03T05:00:00.094Z,1004.54
2022-10-03T05:05:00.121Z,1004.5
2022-10-03T05:10:04.584Z,1004.63
2022-10-03T05:15:00.082Z,1004.58
2022-10-03T05:20:00.078Z,1004.68
2022-10-03T05:25:00.125Z,1004.72
2022-10-03T05:30:00.092Z,1004.75
2022-10-03T05:35:00.077Z,1004.8
2022-10-03T05:40:00.109Z,1004.77
2022-10-03T05:45:00.098Z,1004.81
2022-10-03T05:50:00.086Z,1004.84
2022-10-03T05:55:00.104Z,1004.89
2022-10-03T06:00:00.074Z,1004.96
2022-10-03T06:05:00.102Z,1005.05
2022-10-03T06:10:00.099Z,1005.14
2022-10-03T06:15:00.083Z,1005.16
2022-10-03T06:20:00.098Z,1005.14
2022-10-03T06:25:00.105Z,1005.24
2022-10-03T06:30:00.116Z,1005.19
2022-10-03T06:35:00.094Z,1005.26
2022-10-03T06:40:00.094Z,1005.32
2022-10-03T06:45:00.106Z,1005.26
2022-10-03T06:50:00.081Z,1005.41
2022-10-03T06:55:00.113Z,1005.56
2022-10-03T07:00:00.110Z,1005.58
2022-10-03T07:05:00.190Z,1005.53
2022-10-03T07:10:00.108Z,1005.62
2022-10-03T07:15:00.111Z,1005.62
2022-10-03T07:20:00.101Z,1005.64
2022-10-03T07:25:00.121Z,1005.72
2022-10-03T07:30:00.107Z,1005.64
2022-10-03T07:35:00.106Z,1005.87
2022-10-03T07:40:00.094Z,1005.97
2022-10-03T07:45:00.108Z,1005.93
2022-10-03T07:50:00.081Z,1005.88
2022-10-03T07:55:00.132Z,1006.06
2022-10-03T08:00:00.098Z,1006.01
2022-10-03T08:05:00.106Z,1006.12
2022-10-03T08:10:00.099Z,1006.09
2022-10-03T08:15:00.071Z,1006.05
2022-10-03T08:20:00.109Z,1006.23
2022-10-03T08:25:02.792Z,1006.27
2022-10-03T08:30:00.107Z,1006.3
2022-10-03T08:35:00.079Z,1006.3
2022-10-03T08:40:00.086Z,1006.3
2022-10-03T08:45:00.104Z,1006.27
2022-10-03T08:50:04.479Z,1006.38
2022-10-03T08:55:00.102Z,1006.39
2022-10-03T09:00:00.149Z,1006.26
2022-10-03T09:05:00.104Z,1006.32
2022-10-03T09:10:00.099Z,1006.26
2022-10-03T09:15:00.098Z,1006.29
2022-10-03T09:20:00.096Z,1006.38
2022-10-03T09:25:00.105Z,1006.36
2022-10-03T09:30:00.103Z,1006.43
2022-10-03T09:35:02.641Z,1006.4
2022-10-03T09:40:00.092Z,1006.45
2022-10-03T09:45:00.120Z,1006.49
2022-10-03T09:50:00.114Z,1006.41
2022-10-03T09:55:00.088Z,1006.4
2022-10-03T10:00:00.126Z,1006.43
2022-10-03T10:05:00.266Z,1006.41
2022-10-03T10:10:00.089Z,1006.37
2022-10-03T10:15:00.090Z,1006.4
2022-10-03T10:20:00.111Z,1006.33
2022-10-03T10:25:00.100Z,1006.31
2022-10-03T10:30:00.157Z,1006.31
2022-10-03T10:35:00.124Z,1006.37
2022-10-03T10:40:00.105Z,1006.33
2022-10-03T10:45:00.149Z,1006.25
2022-10-03T10:50:00.128Z,1006.19
2022-10-03T10:55:00.109Z,1006.22
2022-10-03T11:00:00.141Z,1006.28
2022-10-03T11:05:00.182Z,1006.32
2022-10-03T11:10:00.108Z,1006.21
2022-10-03T11:15:00.110Z,1006.23
2022-10-03T11:20:00.072Z,1006.12
2022-10-03T11:25:00.123Z,1006.19
2022-10-03T11:30:00.121Z,1006.38
2022-10-03T11:35:00.108Z,1006.28
2022-10-03T11:40:00.122Z,1006.27
2022-10-03T11:45:00.126Z,1006.31
2022-10-03T11:50:00.109Z,1006.31
2022-10-03T11:55:00.090Z,1006.22
2022-10-03T12:00:00.172Z,1006.12
2022-10-03T12:05:00.147Z,1006.19
2022-10-03T12:10:00.100Z,1006.25
2022-10-03T12:15:00.105Z,1006.28
2022-10-03T12:20:00.091Z,1006.22
2022-10-03T12:25:00.194Z,1006.23
2022-10-03T12:30:00.111Z,1006.15
2022-10-03T12:35:00.088Z,1006.18
2022-10-03T12:40:00.117Z,1006.15
2022-10-03T12:45:00.126Z,1006.22
2022-10-03T12:50:00.091Z,1006.08
2022-10-03T12:55:00.080Z,1006.08
2022-10-03T13:00:00.137Z,1006.11
2022-10-03T13:05:00.106Z,1006.2
2022-10-03T13:10:00.090Z,1006.09
2022-10-03T13:15:00.127Z,1006
2022-10-03T13:20:00.084Z,1005.98
2022-10-03T13:25:00.110Z,1006.11
2022-10-03T13:30:00.126Z,1006.03
2022-10-03T13:35:00.096Z,1006.05
2022-10-03T13:40:00.120Z,1006.08
2022-10-03T13:45:00.123Z,1006
2022-10-03T13:50:00.101Z,1006.04
2022-10-03T13:55:00.102Z,1005.96
2022-10-03T14:00:00.120Z,1006.09
2022-10-03T14:05:00.132Z,1006
2022-10-03T14:10:00.077Z,1006.07
2022-10-03T14:15:00.113Z,1006.04
2022-10-03T14:20:00.099Z,1006.09
2022-10-03T14:25:00.096Z,1006
2022-10-03T14:30:00.099Z,1006.06
2022-10-03T14:35:00.098Z,1006.05
2022-10-03T14:40:00.103Z,1005.98
2022-10-03T14:45:00.140Z,1005.81
2022-10-03T14:50:00.252Z,1005.88
2022-10-03T14:55:00.086Z,1005.9
2022-10-03T15:00:00.182Z,1005.9
2022-10-03T15:05:00.106Z,1005.92
2022-10-03T15:10:00.109Z,1005.9
2022-10-03T15:15:00.082Z,1005.82
2022-10-03T15:20:00.101Z,1005.92
2022-10-03T15:25:00.106Z,1005.95
2022-10-03T15:30:00.106Z,1005.86
2022-10-03T15:35:00.134Z,1005.86
2022-10-03T15:40:00.119Z,1005.71
2022-10-03T15:45:00.113Z,1005.79
2022-10-03T15:50:00.111Z,1005.78
2022-10-03T15:55:11.352Z,1005.75
2022-10-03T16:00:03.172Z,1005.71
2022-10-03T16:05:00.095Z,1005.77
2022-10-03T16:10:00.120Z,1005.77
2022-10-03T16:15:00.131Z,1005.92
2022-10-03T16:20:00.070Z,1005.79
2022-10-03T16:25:00.119Z,1005.86
2022-10-03T16:30:00.110Z,1005.87
2022-10-03T16:35:00.082Z,1005.89
2022-10-03T16:40:00.092Z,1005.87
2022-10-03T16:45:00.112Z,1005.89
2022-10-03T16:50:00.109Z,1006.08
2022-10-03T16:55:00.134Z,1006.12
2022-10-03T17:00:00.113Z,1006.26
2022-10-03T17:05:00.205Z,1006.12
2022-10-03T17:10:00.116Z,1006.05
2022-10-03T17:15:00.107Z,1006.04
2022-10-03T17:20:00.200Z,1005.94
2022-10-03T17:25:00.116Z,1005.92
2022-10-03T17:30:00.305Z,1005.92
2022-10-03T17:35:00.093Z,1005.86
2022-10-03T17:40:00.211Z,1005.86
2022-10-03T17:45:00.104Z,1005.93
2022-10-03T17:50:00.129Z,1005.95
2022-10-03T17:55:00.107Z,1005.95
2022-10-03T18:00:00.196Z,1005.87
2022-10-03T18:05:00.101Z,1005.9
2022-10-03T18:10:00.111Z,1005.94
2022-10-03T18:15:00.086Z,1005.98
2022-10-03T18:20:00.115Z,1005.99
2022-10-03T18:25:00.127Z,1006.03
2022-10-03T18:30:00.114Z,1005.99
2022-10-03T18:35:00.099Z,1006.02
2022-10-03T18:40:00.098Z,1005.92
2022-10-03T18:45:00.099Z,1005.86
2022-10-03T18:50:00.087Z,1005.92
2022-10-03T18:55:00.090Z,1005.93
2022-10-03T19:00:00.109Z,1005.97
2022-10-03T19:05:00.108Z,1005.82
2022-10-03T19:10:00.106Z,1005.93
2022-10-03T19:15:00.073Z,1005.95
2022-10-03T19:20:00.124Z,1006
2022-10-03T19:25:00.128Z,1005.95
2022-10-03T19:30:00.105Z,1005.99
2022-10-03T19:35:00.091Z,1006.05
2022-10-03T19:40:00.103Z,1005.98
2022-10-03T19:45:00.131Z,1005.9
2022-10-03T19:50:00.158Z,1006.01
2022-10-03T19:55:00.147Z,1005.99
2022-10-03T20:00:00.153Z,1005.97
2022-10-03T20:05:00.103Z,1005.93
2022-10-03T20:10:00.153Z,1005.89
2022-10-03T20:15:00.091Z,1005.86
2022-10-03T20:20:00.112Z,1005.8
2022-10-03T20:25:00.130Z,1006.29
2022-10-03T20:30:00.104Z,1006.26
2022-10-03T20:35:00.098Z,1006.21
2022-10-03T20:40:00.092Z,1006.26
2022-10-03T20:45:00.105Z,1006.23
2022-10-03T20:50:00.086Z,1006.37
2022-10-03T20:55:00.086Z,1006.28
2022-10-03T21:00:00.135Z,1006.31
2022-10-03T21:05:00.107Z,1006.35
2022-10-03T21:10:00.087Z,1006.28
2022-10-03T21:15:00.124Z,1006.22
2022-10-03T21:20:00.097Z,1006.22
2022-10-03T21:25:00.107Z,1006.26
2022-10-03T21:30:00.147Z,1006.25
2022-10-03T21:35:00.101Z,1006.22
2022-10-03T21:40:00.146Z,1006.26
2022-10-03T21:45:00.202Z,1006.25
2022-10-03T21:50:00.071Z,1006.2
2022-10-03T21:55:00.089Z,1006.15
2022-10-03T22:00:00.183Z,1006.12
2022-10-03T22:05:00.154Z,1006.26
2022-10-03T22:10:00.127Z,1006.23
2022-10-03T22:15:00.103Z,1006.15
2022-10-03T22:20:00.091Z,1006.12
2022-10-03T22:25:00.118Z,1006.08
2022-10-03T22:30:00.108Z,1006.06
2022-10-03T22:35:00.140Z,1006.15
2022-10-03T22:40:00.131Z,1006.1
2022-10-03T22:45:00.115Z,1006.08
2022-10-03T22:50:00.088Z,1006.04
2022-10-03T22:55:00.100Z,1006.06
2022-10-03T23:00:00.079Z,1006.09
2022-10-03T23:05:00.110Z,1005.99
2022-10-03T23:10:00.101Z,1005.91
2022-10-03T23:15:00.072Z,1005.95
2022-10-03T23:20:00.099Z,1006
2022-10-03T23:25:00.134Z,1005.99
2022-10-03T23:30:00.098Z,1005.98
2022-10-03T23:35:00.075Z,1006.04
2022-10-03T23:40:00.080Z,1006.05
2022-10-03T23:45:00.107Z,1006.08
2022-10-03T23:50:00.132Z,1006.08
2022-10-03T23:55:00.102Z,1006.12
